sensor_id;sensor_type;location;lat;lon;timestamp;temperature;humidity
83685;DHT22;73666;51.304;5.776;2024-01-07T00:04:04;1.40;77.20
83685;DHT22;73666;51.304;5.776;2024-01-07T00:09:05;1.40;77.30
83685;DHT22;73666;51.304;5.776;2024-01-07T00:14:06;1.40;77.20
83685;DHT22;73666;51.304;5.776;2024-01-07T00:19:06;1.40;77.30
83685;DHT22;73666;51.304;5.776;2024-01-07T00:24:07;1.40;77.40
83685;DHT22;73666;51.304;5.776;2024-01-07T00:29:08;1.40;77.40
83685;DHT22;73666;51.304;5.776;2024-01-07T00:34:11;1.40;77.30
83685;DHT22;73666;51.304;5.776;2024-01-07T00:39:12;1.40;77.20
83685;DHT22;73666;51.304;5.776;2024-01-07T00:44:13;1.40;77.20
83685;DHT22;73666;51.304;5.776;2024-01-07T00:49:13;1.40;77.00
83685;DHT22;73666;51.304;5.776;2024-01-07T00:54:14;1.40;77.00
83685;DHT22;73666;51.304;5.776;2024-01-07T00:59:15;1.40;76.90
83685;DHT22;73666;51.304;5.776;2024-01-07T01:04:15;1.40;76.80
83685;DHT22;73666;51.304;5.776;2024-01-07T01:09:17;1.40;76.80
83685;DHT22;73666;51.304;5.776;2024-01-07T01:14:17;1.40;76.60
83685;DHT22;73666;51.304;5.776;2024-01-07T01:19:18;1.40;76.50
83685;DHT22;73666;51.304;5.776;2024-01-07T01:24:19;1.40;76.60
83685;DHT22;73666;51.304;5.776;2024-01-07T01:29:20;1.30;76.60
83685;DHT22;73666;51.304;5.776;2024-01-07T01:34:20;1.30;76.60
83685;DHT22;73666;51.304;5.776;2024-01-07T01:39:21;1.30;76.70
83685;DHT22;73666;51.304;5.776;2024-01-07T01:44:22;1.30;76.70
83685;DHT22;73666;51.304;5.776;2024-01-07T01:49:23;1.20;76.90
83685;DHT22;73666;51.304;5.776;2024-01-07T01:54:24;1.20;77.00
83685;DHT22;73666;51.304;5.776;2024-01-07T01:59:25;1.20;77.10
83685;DHT22;73666;51.304;5.776;2024-01-07T02:04:26;1.20;77.10
83685;DHT22;73666;51.304;5.776;2024-01-07T02:09:27;1.30;77.30
83685;DHT22;73666;51.304;5.776;2024-01-07T02:14:28;1.30;77.40
83685;DHT22;73666;51.304;5.776;2024-01-07T02:19:29;1.20;77.50
83685;DHT22;73666;51.304;5.776;2024-01-07T02:24:29;1.20;77.80
83685;DHT22;73666;51.304;5.776;2024-01-07T02:29:31;1.20;77.80
83685;DHT22;73666;51.304;5.776;2024-01-07T02:34:31;1.20;78.00
83685;DHT22;73666;51.304;5.776;2024-01-07T02:39:32;1.20;78.10
83685;DHT22;73666;51.304;5.776;2024-01-07T02:44:33;1.20;78.20
83685;DHT22;73666;51.304;5.776;2024-01-07T02:49:34;1.20;78.20
83685;DHT22;73666;51.304;5.776;2024-01-07T02:54:34;1.20;78.30
83685;DHT22;73666;51.304;5.776;2024-01-07T02:59:35;1.30;78.40
83685;DHT22;73666;51.304;5.776;2024-01-07T03:04:36;1.30;78.40
83685;DHT22;73666;51.304;5.776;2024-01-07T03:09:36;1.30;78.40
83685;DHT22;73666;51.304;5.776;2024-01-07T03:14:37;1.30;78.40
83685;DHT22;73666;51.304;5.776;2024-01-07T03:19:38;1.20;78.40
83685;DHT22;73666;51.304;5.776;2024-01-07T03:24:39;1.30;78.30
83685;DHT22;73666;51.304;5.776;2024-01-07T03:29:39;1.30;78.20
83685;DHT22;73666;51.304;5.776;2024-01-07T03:34:40;1.20;78.30
83685;DHT22;73666;51.304;5.776;2024-01-07T03:39:41;1.20;78.20
83685;DHT22;73666;51.304;5.776;2024-01-07T03:44:42;1.20;78.30
83685;DHT22;73666;51.304;5.776;2024-01-07T03:49:43;1.20;78.20
83685;DHT22;73666;51.304;5.776;2024-01-07T03:54:44;1.20;78.10
83685;DHT22;73666;51.304;5.776;2024-01-07T03:59:44;1.20;78.10
83685;DHT22;73666;51.304;5.776;2024-01-07T04:04:45;1.10;78.10
83685;DHT22;73666;51.304;5.776;2024-01-07T04:09:46;1.10;78.10
83685;DHT22;73666;51.304;5.776;2024-01-07T04:14:47;1.10;78.10
83685;DHT22;73666;51.304;5.776;2024-01-07T04:19:47;1.00;78.10
83685;DHT22;73666;51.304;5.776;2024-01-07T04:24:48;1.00;78.10
83685;DHT22;73666;51.304;5.776;2024-01-07T04:29:49;1.00;78.20
83685;DHT22;73666;51.304;5.776;2024-01-07T04:34:49;1.00;78.10
83685;DHT22;73666;51.304;5.776;2024-01-07T04:39:50;1.00;78.20
83685;DHT22;73666;51.304;5.776;2024-01-07T04:44:51;1.00;78.20
83685;DHT22;73666;51.304;5.776;2024-01-07T04:49:52;1.00;78.10
83685;DHT22;73666;51.304;5.776;2024-01-07T04:54:56;1.00;78.10
83685;DHT22;73666;51.304;5.776;2024-01-07T04:59:57;1.00;78.10
83685;DHT22;73666;51.304;5.776;2024-01-07T05:04:58;1.00;78.00
83685;DHT22;73666;51.304;5.776;2024-01-07T05:09:58;1.00;77.90
83685;DHT22;73666;51.304;5.776;2024-01-07T05:14:59;1.00;77.90
83685;DHT22;73666;51.304;5.776;2024-01-07T05:20:00;1.00;77.80
83685;DHT22;73666;51.304;5.776;2024-01-07T05:25:01;1.00;77.90
83685;DHT22;73666;51.304;5.776;2024-01-07T05:30:01;1.00;77.80
83685;DHT22;73666;51.304;5.776;2024-01-07T05:35:03;1.00;77.80
83685;DHT22;73666;51.304;5.776;2024-01-07T05:40:04;1.00;77.80
83685;DHT22;73666;51.304;5.776;2024-01-07T05:45:06;1.00;77.80
83685;DHT22;73666;51.304;5.776;2024-01-07T05:50:08;1.00;77.70
83685;DHT22;73666;51.304;5.776;2024-01-07T05:55:08;1.00;77.50
83685;DHT22;73666;51.304;5.776;2024-01-07T06:00:09;1.00;77.40
83685;DHT22;73666;51.304;5.776;2024-01-07T06:05:11;0.90;77.50
83685;DHT22;73666;51.304;5.776;2024-01-07T06:10:12;1.00;77.50
83685;DHT22;73666;51.304;5.776;2024-01-07T06:15:13;0.90;77.20
83685;DHT22;73666;51.304;5.776;2024-01-07T06:20:14;0.90;77.40
83685;DHT22;73666;51.304;5.776;2024-01-07T06:25:14;0.90;77.30
83685;DHT22;73666;51.304;5.776;2024-01-07T06:30:15;0.80;77.10
83685;DHT22;73666;51.304;5.776;2024-01-07T06:35:17;0.90;77.20
83685;DHT22;73666;51.304;5.776;2024-01-07T06:40:18;0.80;77.10
83685;DHT22;73666;51.304;5.776;2024-01-07T06:45:19;0.80;77.20
83685;DHT22;73666;51.304;5.776;2024-01-07T06:50:20;0.80;77.20
83685;DHT22;73666;51.304;5.776;2024-01-07T06:55:21;0.80;77.10
83685;DHT22;73666;51.304;5.776;2024-01-07T07:00:22;0.80;77.10
83685;DHT22;73666;51.304;5.776;2024-01-07T07:05:23;0.80;77.10
83685;DHT22;73666;51.304;5.776;2024-01-07T07:10:24;0.80;76.90
83685;DHT22;73666;51.304;5.776;2024-01-07T07:15:25;0.80;76.80
83685;DHT22;73666;51.304;5.776;2024-01-07T07:20:28;0.80;76.70
83685;DHT22;73666;51.304;5.776;2024-01-07T07:25:29;0.70;76.70
83685;DHT22;73666;51.304;5.776;2024-01-07T07:30:29;0.80;76.60
83685;DHT22;73666;51.304;5.776;2024-01-07T07:35:30;0.70;76.50
83685;DHT22;73666;51.304;5.776;2024-01-07T07:40:31;0.70;76.50
83685;DHT22;73666;51.304;5.776;2024-01-07T07:45:32;0.70;76.20
83685;DHT22;73666;51.304;5.776;2024-01-07T07:50:33;0.60;76.10
83685;DHT22;73666;51.304;5.776;2024-01-07T07:55:34;0.60;76.10
83685;DHT22;73666;51.304;5.776;2024-01-07T08:00:36;0.60;76.10
83685;DHT22;73666;51.304;5.776;2024-01-07T08:05:37;0.60;76.30
83685;DHT22;73666;51.304;5.776;2024-01-07T08:10:37;0.60;76.40
83685;DHT22;73666;51.304;5.776;2024-01-07T08:15:38;0.60;76.30
83685;DHT22;73666;51.304;5.776;2024-01-07T08:20:39;0.60;76.40
83685;DHT22;73666;51.304;5.776;2024-01-07T08:25:40;0.60;76.20
83685;DHT22;73666;51.304;5.776;2024-01-07T08:30:41;0.50;76.20
83685;DHT22;73666;51.304;5.776;2024-01-07T08:35:42;0.50;75.90
83685;DHT22;73666;51.304;5.776;2024-01-07T08:40:43;0.50;76.10
83685;DHT22;73666;51.304;5.776;2024-01-07T08:45:44;0.50;76.00
83685;DHT22;73666;51.304;5.776;2024-01-07T08:50:44;0.50;76.00
83685;DHT22;73666;51.304;5.776;2024-01-07T08:55:50;0.50;76.20
83685;DHT22;73666;51.304;5.776;2024-01-07T09:00:50;0.50;76.10
83685;DHT22;73666;51.304;5.776;2024-01-07T09:05:51;0.50;76.10
83685;DHT22;73666;51.304;5.776;2024-01-07T09:10:52;0.50;76.00
83685;DHT22;73666;51.304;5.776;2024-01-07T09:15:52;0.50;76.00
83685;DHT22;73666;51.304;5.776;2024-01-07T09:20:53;0.60;76.00
83685;DHT22;73666;51.304;5.776;2024-01-07T09:25:54;0.50;75.80
83685;DHT22;73666;51.304;5.776;2024-01-07T09:30:55;0.60;75.80
83685;DHT22;73666;51.304;5.776;2024-01-07T09:35:55;0.60;75.80
83685;DHT22;73666;51.304;5.776;2024-01-07T09:40:56;0.60;75.50
83685;DHT22;73666;51.304;5.776;2024-01-07T09:45:57;0.60;75.30
83685;DHT22;73666;51.304;5.776;2024-01-07T09:51:01;0.60;75.30
83685;DHT22;73666;51.304;5.776;2024-01-07T10:01:15;0.60;75.10
83685;DHT22;73666;51.304;5.776;2024-01-07T10:06:18;0.60;75.10
83685;DHT22;73666;51.304;5.776;2024-01-07T10:11:21;0.60;75.30
83685;DHT22;73666;51.304;5.776;2024-01-07T10:16:23;0.60;75.20
83685;DHT22;73666;51.304;5.776;2024-01-07T10:21:24;0.60;74.90
83685;DHT22;73666;51.304;5.776;2024-01-07T10:26:24;0.60;75.20
83685;DHT22;73666;51.304;5.776;2024-01-07T10:31:25;0.60;74.90
83685;DHT22;73666;51.304;5.776;2024-01-07T10:36:26;0.60;75.00
83685;DHT22;73666;51.304;5.776;2024-01-07T10:41:27;0.70;74.70
83685;DHT22;73666;51.304;5.776;2024-01-07T10:46:30;0.80;74.80
83685;DHT22;73666;51.304;5.776;2024-01-07T10:51:34;0.80;74.50
83685;DHT22;73666;51.304;5.776;2024-01-07T10:56:49;0.80;73.60
83685;DHT22;73666;51.304;5.776;2024-01-07T11:01:50;0.60;73.80
83685;DHT22;73666;51.304;5.776;2024-01-07T11:06:57;0.60;73.80
83685;DHT22;73666;51.304;5.776;2024-01-07T11:12:00;0.70;73.80
83685;DHT22;73666;51.304;5.776;2024-01-07T11:17:00;0.60;73.70
83685;DHT22;73666;51.304;5.776;2024-01-07T11:22:26;0.60;73.60
83685;DHT22;73666;51.304;5.776;2024-01-07T11:27:31;0.60;73.30
83685;DHT22;73666;51.304;5.776;2024-01-07T11:32:33;0.70;73.20
83685;DHT22;73666;51.304;5.776;2024-01-07T11:37:35;0.80;73.20
83685;DHT22;73666;51.304;5.776;2024-01-07T11:42:36;0.80;73.00
83685;DHT22;73666;51.304;5.776;2024-01-07T11:47:37;0.90;72.30
83685;DHT22;73666;51.304;5.776;2024-01-07T11:52:38;1.00;72.20
83685;DHT22;73666;51.304;5.776;2024-01-07T11:57:39;0.90;71.60
83685;DHT22;73666;51.304;5.776;2024-01-07T12:02:42;0.80;71.70
83685;DHT22;73666;51.304;5.776;2024-01-07T12:07:43;0.80;72.10
83685;DHT22;73666;51.304;5.776;2024-01-07T12:12:43;0.70;72.00
83685;DHT22;73666;51.304;5.776;2024-01-07T12:17:58;0.60;72.00
83685;DHT22;73666;51.304;5.776;2024-01-07T12:23:08;0.60;72.30
83685;DHT22;73666;51.304;5.776;2024-01-07T12:28:09;0.50;72.70
83685;DHT22;73666;51.304;5.776;2024-01-07T12:33:10;0.60;72.30
83685;DHT22;73666;51.304;5.776;2024-01-07T12:38:10;0.60;71.90
83685;DHT22;73666;51.304;5.776;2024-01-07T12:43:11;0.60;72.10
83685;DHT22;73666;51.304;5.776;2024-01-07T12:48:12;0.60;72.20
83685;DHT22;73666;51.304;5.776;2024-01-07T12:53:13;0.70;72.20
83685;DHT22;73666;51.304;5.776;2024-01-07T12:58:13;0.60;71.80
83685;DHT22;73666;51.304;5.776;2024-01-07T13:03:14;0.50;71.50
83685;DHT22;73666;51.304;5.776;2024-01-07T13:08:19;0.40;71.10
83685;DHT22;73666;51.304;5.776;2024-01-07T13:13:22;0.40;71.00
83685;DHT22;73666;51.304;5.776;2024-01-07T13:18:23;0.50;71.40
83685;DHT22;73666;51.304;5.776;2024-01-07T13:23:24;0.50;71.10
83685;DHT22;73666;51.304;5.776;2024-01-07T13:28:24;0.60;71.10
83685;DHT22;73666;51.304;5.776;2024-01-07T13:33:25;0.60;71.00
83685;DHT22;73666;51.304;5.776;2024-01-07T13:38:26;0.60;70.20
83685;DHT22;73666;51.304;5.776;2024-01-07T13:43:26;0.50;70.10
83685;DHT22;73666;51.304;5.776;2024-01-07T13:48:29;0.50;70.50
83685;DHT22;73666;51.304;5.776;2024-01-07T13:53:30;0.40;70.40
83685;DHT22;73666;51.304;5.776;2024-01-07T13:58:31;0.40;70.20
83685;DHT22;73666;51.304;5.776;2024-01-07T14:03:31;0.40;70.20
83685;DHT22;73666;51.304;5.776;2024-01-07T14:08:33;0.40;68.90
83685;DHT22;73666;51.304;5.776;2024-01-07T14:13:34;0.30;68.20
83685;DHT22;73666;51.304;5.776;2024-01-07T14:18:34;0.20;67.70
83685;DHT22;73666;51.304;5.776;2024-01-07T14:23:35;0.20;68.20
83685;DHT22;73666;51.304;5.776;2024-01-07T14:28:39;0.10;69.00
83685;DHT22;73666;51.304;5.776;2024-01-07T14:33:40;0.00;68.50
83685;DHT22;73666;51.304;5.776;2024-01-07T14:38:43;0.00;67.50
83685;DHT22;73666;51.304;5.776;2024-01-07T14:43:43;0.00;68.10
83685;DHT22;73666;51.304;5.776;2024-01-07T14:48:44;0.00;67.70
83685;DHT22;73666;51.304;5.776;2024-01-07T14:53:45;-0.10;67.50
83685;DHT22;73666;51.304;5.776;2024-01-07T14:58:46;-0.10;67.80
83685;DHT22;73666;51.304;5.776;2024-01-07T15:03:46;-0.20;67.60
83685;DHT22;73666;51.304;5.776;2024-01-07T15:08:47;-0.20;67.60
83685;DHT22;73666;51.304;5.776;2024-01-07T15:13:49;-0.30;67.70
83685;DHT22;73666;51.304;5.776;2024-01-07T15:18:50;-0.40;68.20
83685;DHT22;73666;51.304;5.776;2024-01-07T15:23:51;-0.40;67.80
83685;DHT22;73666;51.304;5.776;2024-01-07T15:28:51;-0.40;67.60
83685;DHT22;73666;51.304;5.776;2024-01-07T15:33:52;-0.40;66.60
83685;DHT22;73666;51.304;5.776;2024-01-07T15:38:53;-0.50;67.00
83685;DHT22;73666;51.304;5.776;2024-01-07T15:43:55;-0.50;67.10
83685;DHT22;73666;51.304;5.776;2024-01-07T15:48:56;-0.60;67.20
83685;DHT22;73666;51.304;5.776;2024-01-07T15:53:57;-0.70;67.80
83685;DHT22;73666;51.304;5.776;2024-01-07T15:58:58;-0.90;67.90
83685;DHT22;73666;51.304;5.776;2024-01-07T16:03:58;-1.00;67.70
83685;DHT22;73666;51.304;5.776;2024-01-07T16:08:59;-1.10;68.00
83685;DHT22;73666;51.304;5.776;2024-01-07T16:14:00;-1.10;68.10
83685;DHT22;73666;51.304;5.776;2024-01-07T16:19:01;-1.10;68.00
83685;DHT22;73666;51.304;5.776;2024-01-07T16:24:01;-1.00;68.00
83685;DHT22;73666;51.304;5.776;2024-01-07T16:29:02;-1.00;68.20
83685;DHT22;73666;51.304;5.776;2024-01-07T16:34:03;-0.90;68.20
83685;DHT22;73666;51.304;5.776;2024-01-07T16:39:09;-0.90;68.10
83685;DHT22;73666;51.304;5.776;2024-01-07T16:44:10;-1.00;67.60
83685;DHT22;73666;51.304;5.776;2024-01-07T16:49:10;-1.00;67.30
83685;DHT22;73666;51.304;5.776;2024-01-07T16:54:11;-1.00;67.50
83685;DHT22;73666;51.304;5.776;2024-01-07T16:59:12;-1.00;68.00
83685;DHT22;73666;51.304;5.776;2024-01-07T17:04:15;-1.00;68.20
83685;DHT22;73666;51.304;5.776;2024-01-07T17:09:15;-1.00;68.50
83685;DHT22;73666;51.304;5.776;2024-01-07T17:14:17;-1.10;68.70
83685;DHT22;73666;51.304;5.776;2024-01-07T17:19:18;-1.10;68.70
83685;DHT22;73666;51.304;5.776;2024-01-07T17:24:19;-1.10;68.50
83685;DHT22;73666;51.304;5.776;2024-01-07T17:29:20;-1.30;68.80
83685;DHT22;73666;51.304;5.776;2024-01-07T17:34:21;-1.30;69.20
83685;DHT22;73666;51.304;5.776;2024-01-07T17:39:22;-1.50;69.50
83685;DHT22;73666;51.304;5.776;2024-01-07T17:44:24;-1.50;69.50
83685;DHT22;73666;51.304;5.776;2024-01-07T17:49:26;-1.60;69.50
83685;DHT22;73666;51.304;5.776;2024-01-07T17:54:26;-1.60;69.70
83685;DHT22;73666;51.304;5.776;2024-01-07T17:59:27;-1.70;69.50
83685;DHT22;73666;51.304;5.776;2024-01-07T18:04:29;-1.70;69.70
83685;DHT22;73666;51.304;5.776;2024-01-07T18:09:32;-1.70;69.80
83685;DHT22;73666;51.304;5.776;2024-01-07T18:14:32;-1.70;69.70
83685;DHT22;73666;51.304;5.776;2024-01-07T18:19:34;-1.70;69.50
83685;DHT22;73666;51.304;5.776;2024-01-07T18:24:35;-1.70;69.60
83685;DHT22;73666;51.304;5.776;2024-01-07T18:29:35;-1.80;69.90
83685;DHT22;73666;51.304;5.776;2024-01-07T18:34:38;-1.80;70.20
83685;DHT22;73666;51.304;5.776;2024-01-07T18:39:38;-1.90;70.60
83685;DHT22;73666;51.304;5.776;2024-01-07T18:44:40;-1.90;70.70
83685;DHT22;73666;51.304;5.776;2024-01-07T18:49:41;-2.00;70.80
83685;DHT22;73666;51.304;5.776;2024-01-07T18:54:43;-2.10;70.90
83685;DHT22;73666;51.304;5.776;2024-01-07T18:59:44;-2.10;71.00
83685;DHT22;73666;51.304;5.776;2024-01-07T19:04:44;-2.10;71.20
83685;DHT22;73666;51.304;5.776;2024-01-07T19:09:45;-2.10;71.30
83685;DHT22;73666;51.304;5.776;2024-01-07T19:14:46;-2.20;71.40
83685;DHT22;73666;51.304;5.776;2024-01-07T19:19:46;-2.20;71.60
83685;DHT22;73666;51.304;5.776;2024-01-07T19:24:47;-2.30;71.80
83685;DHT22;73666;51.304;5.776;2024-01-07T19:29:50;-2.30;71.90
83685;DHT22;73666;51.304;5.776;2024-01-07T19:34:51;-2.40;72.00
83685;DHT22;73666;51.304;5.776;2024-01-07T19:39:53;-2.40;72.20
83685;DHT22;73666;51.304;5.776;2024-01-07T19:44:57;-2.40;72.20
83685;DHT22;73666;51.304;5.776;2024-01-07T19:49:58;-2.40;72.20
83685;DHT22;73666;51.304;5.776;2024-01-07T19:54:59;-2.40;72.20
83685;DHT22;73666;51.304;5.776;2024-01-07T19:59:59;-2.40;72.40
83685;DHT22;73666;51.304;5.776;2024-01-07T20:05:00;-2.50;72.50
83685;DHT22;73666;51.304;5.776;2024-01-07T20:10:01;-2.50;72.60
83685;DHT22;73666;51.304;5.776;2024-01-07T20:15:01;-2.50;72.70
83685;DHT22;73666;51.304;5.776;2024-01-07T20:20:02;-2.50;72.70
83685;DHT22;73666;51.304;5.776;2024-01-07T20:25:03;-2.50;72.90
83685;DHT22;73666;51.304;5.776;2024-01-07T20:30:11;-2.50;73.00
83685;DHT22;73666;51.304;5.776;2024-01-07T20:35:14;-2.50;73.00
83685;DHT22;73666;51.304;5.776;2024-01-07T20:40:14;-2.50;73.10
83685;DHT22;73666;51.304;5.776;2024-01-07T20:45:15;-2.60;73.30
83685;DHT22;73666;51.304;5.776;2024-01-07T20:50:20;-2.60;73.40
83685;DHT22;73666;51.304;5.776;2024-01-07T20:55:20;-2.60;73.50
83685;DHT22;73666;51.304;5.776;2024-01-07T21:00:21;-2.50;73.60
83685;DHT22;73666;51.304;5.776;2024-01-07T21:05:22;-2.50;73.80
83685;DHT22;73666;51.304;5.776;2024-01-07T21:10:23;-2.50;73.70
83685;DHT22;73666;51.304;5.776;2024-01-07T21:21:27;-2.40;73.80
83685;DHT22;73666;51.304;5.776;2024-01-07T21:26:28;-2.40;73.70
83685;DHT22;73666;51.304;5.776;2024-01-07T21:31:31;-2.40;73.60
83685;DHT22;73666;51.304;5.776;2024-01-07T21:36:31;-2.40;73.70
83685;DHT22;73666;51.304;5.776;2024-01-07T21:41:32;-2.40;73.60
83685;DHT22;73666;51.304;5.776;2024-01-07T21:46:33;-2.40;73.40
83685;DHT22;73666;51.304;5.776;2024-01-07T21:51:38;-2.40;73.40
83685;DHT22;73666;51.304;5.776;2024-01-07T21:56:39;-2.40;73.30
83685;DHT22;73666;51.304;5.776;2024-01-07T22:01:40;-2.40;73.30
83685;DHT22;73666;51.304;5.776;2024-01-07T22:06:45;-2.30;73.10
83685;DHT22;73666;51.304;5.776;2024-01-07T22:11:46;-2.10;72.50
83685;DHT22;73666;51.304;5.776;2024-01-07T22:16:47;-1.80;71.70
83685;DHT22;73666;51.304;5.776;2024-01-07T22:21:48;-1.70;71.60
83685;DHT22;73666;51.304;5.776;2024-01-07T22:26:58;-1.60;71.50
83685;DHT22;73666;51.304;5.776;2024-01-07T22:32:05;-1.60;71.20
83685;DHT22;73666;51.304;5.776;2024-01-07T22:37:14;-1.50;71.40
83685;DHT22;73666;51.304;5.776;2024-01-07T22:42:20;-1.50;71.20
83685;DHT22;73666;51.304;5.776;2024-01-07T22:47:21;-1.50;71.00
83685;DHT22;73666;51.304;5.776;2024-01-07T22:52:22;-1.50;70.70
83685;DHT22;73666;51.304;5.776;2024-01-07T22:57:23;-1.50;70.40
83685;DHT22;73666;51.304;5.776;2024-01-07T23:02:26;-1.50;70.20
83685;DHT22;73666;51.304;5.776;2024-01-07T23:07:29;-1.50;70.00
83685;DHT22;73666;51.304;5.776;2024-01-07T23:12:30;-1.50;70.00
83685;DHT22;73666;51.304;5.776;2024-01-07T23:17:33;-1.60;68.70
83685;DHT22;73666;51.304;5.776;2024-01-07T23:22:34;-1.60;68.60
83685;DHT22;73666;51.304;5.776;2024-01-07T23:27:36;-1.50;68.90
83685;DHT22;73666;51.304;5.776;2024-01-07T23:32:39;-1.50;68.50
83685;DHT22;73666;51.304;5.776;2024-01-07T23:37:40;-1.60;68.60
83685;DHT22;73666;51.304;5.776;2024-01-07T23:42:41;-1.60;68.80
83685;DHT22;73666;51.304;5.776;2024-01-07T23:47:42;-1.60;68.80
83685;DHT22;73666;51.304;5.776;2024-01-07T23:52:43;-1.60;68.40
83685;DHT22;73666;51.304;5.776;2024-01-07T23:57:44;-1.70;68.00
